createdAt,value
2023-08-29T00:01:11.359Z,16.30
2023-08-29T00:03:38.393Z,16.34
2023-08-29T00:06:06.424Z,16.37
2023-08-29T00:08:34.266Z,16.42
2023-08-29T00:11:03.559Z,16.45
2023-08-29T00:13:31.039Z,16.46
2023-08-29T00:15:58.295Z,16.48
2023-08-29T00:18:25.310Z,16.52
2023-08-29T00:20:53.080Z,16.54
2023-08-29T00:23:19.929Z,16.56
2023-08-29T00:25:49.627Z,16.58
2023-08-29T00:28:16.577Z,16.59
2023-08-29T00:30:45.213Z,16.62
2023-08-29T00:33:12.472Z,16.66
2023-08-29T00:35:40.604Z,16.70
2023-08-29T00:38:07.938Z,16.72
2023-08-29T00:40:35.903Z,16.73
2023-08-29T00:43:06.119Z,16.73
2023-08-29T00:45:35.515Z,16.69
2023-08-29T00:48:02.625Z,16.64
2023-08-29T00:50:30.939Z,16.58
2023-08-29T00:53:00.244Z,16.53
2023-08-29T00:55:27.593Z,16.50
2023-08-29T00:57:57.769Z,16.48
2023-08-29T01:00:28.820Z,16.48
2023-08-29T01:02:57.471Z,16.47
2023-08-29T01:05:24.608Z,16.48
2023-08-29T01:07:59.154Z,16.49
2023-08-29T01:10:38.343Z,16.48
2023-08-29T01:13:26.417Z,16.46
2023-08-29T01:15:57.135Z,16.48
2023-08-29T01:18:25.583Z,16.50
2023-08-29T01:20:57.043Z,16.55
2023-08-29T01:23:32.688Z,16.57
2023-08-29T01:26:14.700Z,16.60
2023-08-29T01:28:44.082Z,16.64
2023-08-29T01:31:11.650Z,16.66
2023-08-29T01:33:43.392Z,16.68
2023-08-29T01:36:10.246Z,16.67
2023-08-29T01:38:37.074Z,16.67
2023-08-29T01:41:03.932Z,16.66
2023-08-29T01:43:30.860Z,16.62
2023-08-29T01:45:57.884Z,16.56
2023-08-29T01:48:25.645Z,16.51
2023-08-29T01:50:53.741Z,16.47
2023-08-29T01:53:20.705Z,16.45
2023-08-29T01:55:48.857Z,16.44
2023-08-29T01:58:16.521Z,16.44
2023-08-29T02:00:43.786Z,16.44
2023-08-29T02:03:10.814Z,16.44
2023-08-29T02:05:37.858Z,16.45
2023-08-29T02:08:05.260Z,16.43
2023-08-29T02:10:33.794Z,16.38
2023-08-29T02:13:00.637Z,16.32
2023-08-29T02:15:27.586Z,16.30
2023-08-29T02:17:54.948Z,16.29
2023-08-29T02:20:21.980Z,16.28
2023-08-29T02:22:48.818Z,16.25
2023-08-29T02:25:15.765Z,16.20
2023-08-29T02:27:42.602Z,16.18
2023-08-29T02:30:11.083Z,16.18
2023-08-29T02:32:39.326Z,16.16
2023-08-29T02:35:07.806Z,16.14
2023-08-29T02:37:35.603Z,16.12
2023-08-29T02:40:06.991Z,16.08
2023-08-29T02:42:35.839Z,16.07
2023-08-29T02:45:06.784Z,16.09
2023-08-29T02:47:33.782Z,16.10
2023-08-29T02:50:00.672Z,16.13
2023-08-29T02:52:27.707Z,16.18
2023-08-29T02:54:55.066Z,16.22
2023-08-29T02:57:21.905Z,16.23
2023-08-29T02:59:48.743Z,16.25
2023-08-29T03:02:15.687Z,16.26
2023-08-29T03:04:43.044Z,16.27
2023-08-29T03:07:10.289Z,16.27
2023-08-29T03:09:37.538Z,16.28
2023-08-29T03:12:05.718Z,16.27
2023-08-29T03:14:33.079Z,16.28
2023-08-29T03:17:00.218Z,16.31
2023-08-29T03:19:27.465Z,16.30
2023-08-29T03:21:54.265Z,16.31
2023-08-29T03:24:21.149Z,16.33
2023-08-29T03:26:47.992Z,16.34
2023-08-29T03:29:15.035Z,16.35
2023-08-29T03:31:42.597Z,16.37
2023-08-29T03:34:09.642Z,16.40
2023-08-29T03:36:36.787Z,16.41
2023-08-29T03:39:03.938Z,16.42
2023-08-29T03:41:31.010Z,16.46
2023-08-29T03:43:57.928Z,16.49
2023-08-29T03:46:24.803Z,16.52
2023-08-29T03:48:52.119Z,16.53
2023-08-29T03:51:19.779Z,16.56
2023-08-29T03:53:46.636Z,16.59
2023-08-29T03:56:14.295Z,16.63
2023-08-29T03:58:42.557Z,16.66
2023-08-29T04:01:12.284Z,16.70
2023-08-29T04:03:39.577Z,16.73
2023-08-29T04:06:07.483Z,16.77
2023-08-29T04:08:34.335Z,16.80
2023-08-29T04:11:04.349Z,16.80
2023-08-29T04:13:31.183Z,16.80
2023-08-29T04:16:04.549Z,16.80
2023-08-29T04:18:32.973Z,16.80
2023-08-29T04:21:00.206Z,16.80
2023-08-29T04:23:27.253Z,16.83
2023-08-29T04:25:59.620Z,16.85
2023-08-29T04:28:27.693Z,16.88
2023-08-29T04:30:55.252Z,16.90
2023-08-29T04:33:23.336Z,16.91
2023-08-29T04:35:52.410Z,16.92
2023-08-29T04:38:19.765Z,16.91
2023-08-29T04:40:46.548Z,16.91
2023-08-29T04:43:13.557Z,16.91
2023-08-29T04:45:41.227Z,16.90
2023-08-29T04:48:08.473Z,16.91
2023-08-29T04:50:36.326Z,16.91
2023-08-29T04:53:04.506Z,16.92
2023-08-29T04:55:31.752Z,16.93
2023-08-29T04:57:59.205Z,16.96
2023-08-29T05:00:26.150Z,17.00
2023-08-29T05:02:53.181Z,17.03
2023-08-29T05:05:20.147Z,17.07
2023-08-29T05:07:47.299Z,17.11
2023-08-29T05:10:14.333Z,17.15
2023-08-29T05:12:42.096Z,17.18
2023-08-29T05:15:09.671Z,17.22
2023-08-29T05:17:37.135Z,17.26
2023-08-29T05:20:05.332Z,17.31
2023-08-29T05:22:32.227Z,17.36
2023-08-29T05:24:59.066Z,17.39
2023-08-29T05:27:26.011Z,17.42
2023-08-29T05:29:52.950Z,17.46
2023-08-29T05:32:19.804Z,17.49
2023-08-29T05:34:46.740Z,17.52
2023-08-29T05:37:13.583Z,17.52
2023-08-29T05:39:40.457Z,17.49
2023-08-29T05:42:07.363Z,17.50
2023-08-29T05:44:34.207Z,17.51
2023-08-29T05:47:01.253Z,17.53
2023-08-29T05:49:28.298Z,17.56
2023-08-29T05:51:55.241Z,17.57
2023-08-29T05:54:22.185Z,17.59
2023-08-29T05:56:49.028Z,17.60
2023-08-29T05:59:16.178Z,17.61
2023-08-29T06:01:43.123Z,17.61
2023-08-29T06:04:09.965Z,17.60
2023-08-29T06:06:40.692Z,17.58
2023-08-29T06:09:11.435Z,17.55
2023-08-29T06:11:38.265Z,17.52
2023-08-29T06:14:05.130Z,17.49
2023-08-29T06:16:32.162Z,17.46
2023-08-29T06:18:59.326Z,17.43
2023-08-29T06:21:26.352Z,17.43
2023-08-29T06:23:53.357Z,17.44
2023-08-29T06:26:20.748Z,17.44
2023-08-29T06:28:47.996Z,17.44
2023-08-29T06:31:15.459Z,17.41
2023-08-29T06:33:42.398Z,17.38
2023-08-29T06:36:09.344Z,17.34
2023-08-29T06:38:37.511Z,17.33
2023-08-29T06:41:05.484Z,17.33
2023-08-29T06:43:32.525Z,17.34
2023-08-29T06:45:59.443Z,17.36
2023-08-29T06:48:26.618Z,17.37
2023-08-29T06:50:53.969Z,17.41
2023-08-29T06:53:20.809Z,17.45
2023-08-29T06:55:47.653Z,17.49
2023-08-29T06:58:14.800Z,17.53
2023-08-29T07:00:41.753Z,17.57
2023-08-29T07:03:08.927Z,17.59
2023-08-29T07:05:37.068Z,17.62
2023-08-29T07:08:05.409Z,17.64
2023-08-29T07:10:32.803Z,17.63
2023-08-29T07:12:59.637Z,17.64
2023-08-29T07:15:26.705Z,17.68
2023-08-29T07:17:54.731Z,17.71
2023-08-29T07:20:21.958Z,17.74
2023-08-29T07:22:48.951Z,17.76
2023-08-29T07:25:18.760Z,17.78
2023-08-29T07:27:45.601Z,17.80
2023-08-29T07:30:16.351Z,17.82
2023-08-29T07:32:44.840Z,17.84
2023-08-29T07:35:11.857Z,17.85
2023-08-29T07:37:38.807Z,17.86
2023-08-29T07:40:06.311Z,17.90
2023-08-29T07:42:33.215Z,17.93
2023-08-29T07:45:00.679Z,17.94
2023-08-29T07:47:27.960Z,17.96
2023-08-29T07:49:54.864Z,17.97
2023-08-29T07:52:21.692Z,18.00
2023-08-29T07:54:48.641Z,18.04
2023-08-29T07:57:15.495Z,18.05
2023-08-29T07:59:42.629Z,18.06
2023-08-29T08:02:09.784Z,18.10
2023-08-29T08:04:37.453Z,18.12
2023-08-29T08:07:04.686Z,18.16
2023-08-29T08:09:32.245Z,18.21
2023-08-29T08:12:01.134Z,18.25
2023-08-29T08:14:28.078Z,18.31
2023-08-29T08:16:55.075Z,18.41
2023-08-29T08:19:21.969Z,18.52
2023-08-29T08:21:51.111Z,18.58
2023-08-29T08:24:18.409Z,18.62
2023-08-29T08:26:45.403Z,18.64
2023-08-29T08:29:12.300Z,18.67
2023-08-29T08:31:39.389Z,18.68
2023-08-29T08:34:06.209Z,18.69
2023-08-29T08:36:33.434Z,18.68
2023-08-29T08:39:00.289Z,18.68
2023-08-29T08:41:27.222Z,18.68
2023-08-29T08:43:56.038Z,18.67
2023-08-29T08:46:23.045Z,18.66
2023-08-29T08:48:50.103Z,18.63
2023-08-29T08:51:20.628Z,18.62
2023-08-29T08:53:47.880Z,18.63
2023-08-29T08:56:15.026Z,18.67
2023-08-29T08:58:42.291Z,18.71
2023-08-29T09:01:09.178Z,18.74
2023-08-29T09:03:36.250Z,18.79
2023-08-29T09:06:03.313Z,18.87
2023-08-29T09:08:32.319Z,18.95
2023-08-29T09:11:02.637Z,19.06
2023-08-29T09:13:30.698Z,19.12
2023-08-29T09:16:01.992Z,19.17
2023-08-29T09:18:32.368Z,19.23
2023-08-29T09:21:01.257Z,19.26
2023-08-29T09:23:30.454Z,19.28
2023-08-29T09:26:00.383Z,19.31
2023-08-29T09:28:28.904Z,19.35
2023-08-29T09:30:57.035Z,19.37
2023-08-29T09:33:23.860Z,19.38
2023-08-29T09:35:50.905Z,19.38
2023-08-29T09:38:19.240Z,19.38
2023-08-29T09:40:49.747Z,19.37
2023-08-29T09:43:17.879Z,19.35
2023-08-29T09:45:55.314Z,19.37
2023-08-29T09:48:23.672Z,19.40
2023-08-29T09:50:51.610Z,19.41
2023-08-29T09:53:20.560Z,19.42
2023-08-29T09:55:50.314Z,19.44
2023-08-29T09:58:18.588Z,19.46
2023-08-29T10:00:46.343Z,19.48
2023-08-29T10:03:13.658Z,19.52
2023-08-29T10:05:45.070Z,19.55
2023-08-29T10:08:11.901Z,19.58
2023-08-29T10:10:43.896Z,19.60
2023-08-29T10:13:11.822Z,19.59
2023-08-29T10:15:43.704Z,19.58
2023-08-29T10:18:11.824Z,19.65
2023-08-29T10:20:40.535Z,19.74
2023-08-29T10:23:07.991Z,19.76
2023-08-29T10:25:37.189Z,19.86
2023-08-29T10:28:05.491Z,20.00
2023-08-29T10:30:33.022Z,20.02
2023-08-29T10:33:02.047Z,19.98
2023-08-29T10:35:32.438Z,19.94
2023-08-29T10:38:11.341Z,19.90
2023-08-29T10:40:40.659Z,19.83
2023-08-29T10:43:24.225Z,19.79
2023-08-29T10:46:00.180Z,19.71
2023-08-29T10:48:30.888Z,19.68
2023-08-29T10:51:22.544Z,19.67
2023-08-29T10:53:54.461Z,19.66
2023-08-29T10:56:27.999Z,19.63
2023-08-29T10:58:56.176Z,19.56
2023-08-29T11:01:29.191Z,19.52
2023-08-29T11:03:57.461Z,19.48
2023-08-29T11:06:26.182Z,19.42
2023-08-29T11:09:21.593Z,19.36
2023-08-29T11:12:08.424Z,19.31
2023-08-29T11:14:51.320Z,19.28
2023-08-29T11:17:23.790Z,19.18
2023-08-29T11:19:58.626Z,19.08
2023-08-29T11:22:28.941Z,19.06
2023-08-29T11:24:56.788Z,19.01
2023-08-29T11:27:25.435Z,18.97
2023-08-29T11:30:11.142Z,18.97
2023-08-29T11:32:50.394Z,18.97
2023-08-29T11:35:17.247Z,18.97
2023-08-29T11:37:44.212Z,19.00
2023-08-29T11:40:12.371Z,19.01
2023-08-29T11:43:12.669Z,18.95
2023-08-29T11:45:45.371Z,18.92
2023-08-29T11:48:42.742Z,18.94
2023-08-29T11:51:09.870Z,18.97
2023-08-29T11:53:38.048Z,19.01
2023-08-29T11:56:06.633Z,19.06
2023-08-29T11:58:36.028Z,19.12
2023-08-29T12:01:04.098Z,19.16
2023-08-29T12:03:35.224Z,19.19
2023-08-29T12:06:04.436Z,19.17
2023-08-29T12:08:40.292Z,19.16
2023-08-29T12:11:08.668Z,19.12
2023-08-29T12:13:36.842Z,19.09
2023-08-29T12:16:05.239Z,19.09
2023-08-29T12:18:33.392Z,19.09
2023-08-29T12:21:29.924Z,19.03
2023-08-29T12:24:09.464Z,18.98
2023-08-29T12:26:36.817Z,18.98
2023-08-29T12:29:03.969Z,18.98
2023-08-29T12:31:30.809Z,19.04
2023-08-29T12:33:57.652Z,19.15
2023-08-29T12:36:24.493Z,19.22
2023-08-29T12:38:51.433Z,19.25
2023-08-29T12:41:18.682Z,19.30
2023-08-29T12:43:45.741Z,19.35
2023-08-29T12:46:12.593Z,19.38
2023-08-29T12:48:39.516Z,19.41
2023-08-29T12:51:08.405Z,19.42
2023-08-29T12:53:35.357Z,19.41
2023-08-29T12:56:03.054Z,19.41
2023-08-29T12:58:29.951Z,19.44
2023-08-29T13:00:57.108Z,19.49
2023-08-29T13:03:24.031Z,19.53
2023-08-29T13:05:52.627Z,19.60
2023-08-29T13:08:19.975Z,19.66
2023-08-29T13:10:46.922Z,19.69
2023-08-29T13:13:13.865Z,19.68
2023-08-29T13:15:50.493Z,19.71
2023-08-29T13:18:19.260Z,19.77
2023-08-29T13:20:46.184Z,19.82
2023-08-29T13:23:13.008Z,19.85
2023-08-29T13:25:39.916Z,19.88
2023-08-29T13:28:07.262Z,19.94
2023-08-29T13:30:34.475Z,19.97
2023-08-29T13:33:01.554Z,19.97
2023-08-29T13:35:28.547Z,19.95
2023-08-29T13:37:55.389Z,19.91
2023-08-29T13:40:22.237Z,19.82
2023-08-29T13:42:50.296Z,19.72
2023-08-29T13:45:17.248Z,19.65
2023-08-29T13:47:45.528Z,19.61
2023-08-29T13:50:12.576Z,19.59
2023-08-29T13:52:39.416Z,19.52
2023-08-29T13:55:06.941Z,19.48
2023-08-29T13:57:33.918Z,19.51
2023-08-29T14:00:00.746Z,19.52
2023-08-29T14:02:28.209Z,19.52
2023-08-29T14:04:55.162Z,19.55
2023-08-29T14:07:22.094Z,19.57
2023-08-29T14:09:49.051Z,19.56
2023-08-29T14:12:15.877Z,19.54
2023-08-29T14:14:42.919Z,19.50
2023-08-29T14:17:09.761Z,19.51
2023-08-29T14:19:36.612Z,19.56
2023-08-29T14:22:05.332Z,19.62
2023-08-29T14:24:32.686Z,19.68
2023-08-29T14:26:59.704Z,19.75
2023-08-29T14:29:31.029Z,19.83
2023-08-29T14:31:58.734Z,19.91
2023-08-29T14:34:25.639Z,19.97
2023-08-29T14:36:52.782Z,20.03
2023-08-29T14:39:19.625Z,20.04
2023-08-29T14:41:46.623Z,20.01
2023-08-29T14:44:13.628Z,19.97
2023-08-29T14:46:41.787Z,20.00
2023-08-29T14:49:08.628Z,20.08
2023-08-29T14:51:35.467Z,20.15
2023-08-29T14:54:04.041Z,20.23
2023-08-29T14:56:31.819Z,20.27
2023-08-29T14:59:00.333Z,20.30
2023-08-29T15:01:27.568Z,20.30
2023-08-29T15:03:54.782Z,20.29
2023-08-29T15:06:21.742Z,20.26
2023-08-29T15:08:48.882Z,20.24
2023-08-29T15:11:16.245Z,20.24
2023-08-29T15:13:43.097Z,20.20
2023-08-29T15:16:10.077Z,20.12
2023-08-29T15:18:37.078Z,20.08
2023-08-29T15:21:04.066Z,20.02
2023-08-29T15:23:30.999Z,19.91
2023-08-29T15:25:58.522Z,19.81
2023-08-29T15:28:34.777Z,19.72
2023-08-29T15:31:03.774Z,19.66
2023-08-29T15:33:31.530Z,19.65
2023-08-29T15:35:58.993Z,19.65
2023-08-29T15:38:26.276Z,19.68
2023-08-29T15:40:55.916Z,19.73
2023-08-29T15:43:26.706Z,19.76
2023-08-29T15:45:54.890Z,19.78
2023-08-29T15:48:22.117Z,19.78
2023-08-29T15:50:49.254Z,19.77
2023-08-29T15:53:16.394Z,19.71
2023-08-29T15:55:44.475Z,19.64
2023-08-29T15:58:14.386Z,19.62
2023-08-29T16:00:41.328Z,19.64
2023-08-29T16:03:08.795Z,19.63
2023-08-29T16:05:36.782Z,19.64
2023-08-29T16:08:04.209Z,19.66
2023-08-29T16:10:31.273Z,19.68
2023-08-29T16:12:58.300Z,19.70
2023-08-29T16:15:25.252Z,19.67
2023-08-29T16:17:52.258Z,19.62
2023-08-29T16:20:19.547Z,19.62
2023-08-29T16:22:47.415Z,19.61
2023-08-29T16:25:15.170Z,19.60
2023-08-29T16:27:42.113Z,19.58
2023-08-29T16:30:11.300Z,19.60
2023-08-29T16:32:40.604Z,19.60
2023-08-29T16:35:08.369Z,19.57
2023-08-29T16:37:38.036Z,19.52
2023-08-29T16:40:07.028Z,19.44
2023-08-29T16:42:33.822Z,19.37
2023-08-29T16:45:00.959Z,19.33
2023-08-29T16:47:27.917Z,19.31
2023-08-29T16:49:54.946Z,19.27
2023-08-29T16:52:21.786Z,19.25
2023-08-29T16:54:48.834Z,19.21
2023-08-29T16:57:17.636Z,19.17
2023-08-29T16:59:59.117Z,19.15
2023-08-29T17:02:26.975Z,19.08
2023-08-29T17:04:55.050Z,19.01
2023-08-29T17:07:22.396Z,18.95
2023-08-29T17:09:49.340Z,18.87
2023-08-29T17:12:20.998Z,18.84
2023-08-29T17:14:50.088Z,18.83
2023-08-29T17:17:17.339Z,18.80
2023-08-29T17:19:44.586Z,18.77
2023-08-29T17:22:11.542Z,18.72
2023-08-29T17:24:38.893Z,18.67
2023-08-29T17:27:06.645Z,18.64
2023-08-29T17:29:33.593Z,18.65
2023-08-29T17:32:00.760Z,18.67
2023-08-29T17:34:28.091Z,18.66
2023-08-29T17:36:57.289Z,18.65
2023-08-29T17:39:24.133Z,18.63
2023-08-29T17:41:50.977Z,18.64
2023-08-29T17:44:17.812Z,18.67
2023-08-29T17:46:44.754Z,18.71
2023-08-29T17:49:11.910Z,18.71
2023-08-29T17:51:39.566Z,18.73
2023-08-29T17:54:06.616Z,18.76
2023-08-29T17:56:33.655Z,18.78
2023-08-29T17:59:00.600Z,18.79
2023-08-29T18:01:27.855Z,18.79
2023-08-29T18:03:55.768Z,18.78
2023-08-29T18:06:25.481Z,18.74
2023-08-29T18:08:54.524Z,18.69
2023-08-29T18:11:22.384Z,18.62
2023-08-29T18:13:49.327Z,18.65
2023-08-29T18:16:16.806Z,18.63
2023-08-29T18:18:44.134Z,18.58
2023-08-29T18:21:12.921Z,18.54
2023-08-29T18:23:39.864Z,18.51
2023-08-29T18:26:08.347Z,18.47
2023-08-29T18:28:35.503Z,18.43
2023-08-29T18:31:06.076Z,18.41
2023-08-29T18:33:35.729Z,18.44
2023-08-29T18:36:02.897Z,18.48
2023-08-29T18:38:30.947Z,18.51
2023-08-29T18:40:58.714Z,18.51
2023-08-29T18:43:25.672Z,18.49
2023-08-29T18:45:52.537Z,18.51
2023-08-29T18:48:20.973Z,18.53
2023-08-29T18:50:47.924Z,18.53
2023-08-29T18:53:14.869Z,18.55
2023-08-29T18:55:42.652Z,18.57
2023-08-29T18:58:09.935Z,18.59
2023-08-29T19:00:38.270Z,18.62
2023-08-29T19:03:05.350Z,18.62
2023-08-29T19:05:34.743Z,18.63
2023-08-29T19:08:02.051Z,18.68
2023-08-29T19:10:28.893Z,18.73
2023-08-29T19:12:55.957Z,18.78
2023-08-29T19:15:22.986Z,18.83
2023-08-29T19:17:49.838Z,18.88
2023-08-29T19:20:18.420Z,18.91
2023-08-29T19:22:45.458Z,18.92
2023-08-29T19:25:12.396Z,18.91
2023-08-29T19:27:39.244Z,18.90
2023-08-29T19:30:10.179Z,18.89
2023-08-29T19:32:37.357Z,18.90
2023-08-29T19:35:04.918Z,18.88
2023-08-29T19:37:32.851Z,18.83
2023-08-29T19:39:59.799Z,18.80
2023-08-29T19:42:26.636Z,18.80
2023-08-29T19:44:53.381Z,18.76
2023-08-29T19:47:24.113Z,18.73
2023-08-29T19:49:51.463Z,18.66
2023-08-29T19:52:18.519Z,18.58
2023-08-29T19:54:45.397Z,18.53
2023-08-29T19:57:13.418Z,18.50
2023-08-29T19:59:40.630Z,18.49
2023-08-29T20:02:10.069Z,18.46
2023-08-29T20:04:37.215Z,18.43
2023-08-29T20:07:04.384Z,18.39
2023-08-29T20:09:32.129Z,18.38
2023-08-29T20:11:59.076Z,18.32
2023-08-29T20:14:29.599Z,18.28
2023-08-29T20:16:59.598Z,18.27
2023-08-29T20:19:26.558Z,18.25
2023-08-29T20:21:53.518Z,18.18
2023-08-29T20:24:24.031Z,18.18
2023-08-29T20:26:51.914Z,18.18
2023-08-29T20:29:18.851Z,18.15
2023-08-29T20:31:45.800Z,18.10
2023-08-29T20:34:12.761Z,18.11
2023-08-29T20:36:39.679Z,18.12
2023-08-29T20:39:07.438Z,18.12
2023-08-29T20:41:34.482Z,18.13
2023-08-29T20:44:01.338Z,18.14
2023-08-29T20:46:28.221Z,18.14
2023-08-29T20:48:55.413Z,18.13
2023-08-29T20:51:22.575Z,18.11
2023-08-29T20:53:49.513Z,18.11
2023-08-29T20:56:16.451Z,18.13
2023-08-29T20:58:43.593Z,18.11
2023-08-29T21:01:10.440Z,18.09
2023-08-29T21:03:37.334Z,18.08
2023-08-29T21:06:04.328Z,18.06
2023-08-29T21:08:31.386Z,18.03
2023-08-29T21:10:58.416Z,18.02
2023-08-29T21:13:25.464Z,18.02
2023-08-29T21:15:52.407Z,18.05
2023-08-29T21:18:20.002Z,18.07
2023-08-29T21:20:54.384Z,18.07
2023-08-29T21:23:21.940Z,18.04
2023-08-29T21:25:49.603Z,18.02
2023-08-29T21:28:20.949Z,17.98
2023-08-29T21:30:47.798Z,17.94
2023-08-29T21:33:14.942Z,17.94
2023-08-29T21:35:43.112Z,17.95
2023-08-29T21:38:11.690Z,17.94
2023-08-29T21:40:40.397Z,17.93
2023-08-29T21:43:12.236Z,17.92
2023-08-29T21:45:41.872Z,17.93
2023-08-29T21:48:10.436Z,17.95
2023-08-29T21:50:42.387Z,17.95
2023-08-29T21:53:10.588Z,17.96
2023-08-29T21:55:39.049Z,17.96
2023-08-29T21:58:07.489Z,17.97
2023-08-29T22:00:35.081Z,17.99
2023-08-29T22:03:02.666Z,18.00
2023-08-29T22:05:31.431Z,18.01
2023-08-29T22:07:59.091Z,18.01
2023-08-29T22:10:26.364Z,18.02
2023-08-29T22:12:53.386Z,18.01
2023-08-29T22:15:20.331Z,18.04
2023-08-29T22:17:47.206Z,18.03
2023-08-29T22:20:14.656Z,18.06
2023-08-29T22:22:41.891Z,18.10
2023-08-29T22:25:09.735Z,18.14
2023-08-29T22:27:37.097Z,18.13
2023-08-29T22:30:05.542Z,18.08
2023-08-29T22:32:34.040Z,18.04
2023-08-29T22:35:02.732Z,18.00
2023-08-29T22:37:29.581Z,17.99
2023-08-29T22:39:56.617Z,18.01
2023-08-29T22:42:23.667Z,18.04
2023-08-29T22:44:50.714Z,18.04
2023-08-29T22:47:18.175Z,18.03
2023-08-29T22:49:45.832Z,18.01
2023-08-29T22:52:13.296Z,18.02
2023-08-29T22:54:41.561Z,18.01
2023-08-29T22:57:08.505Z,18.03
2023-08-29T22:59:35.564Z,18.03
2023-08-29T23:02:06.485Z,18.00
2023-08-29T23:04:34.562Z,17.95
2023-08-29T23:07:07.910Z,17.89
2023-08-29T23:09:36.222Z,17.84
2023-08-29T23:12:04.208Z,17.81
2023-08-29T23:14:31.052Z,17.75
2023-08-29T23:16:58.088Z,17.74
2023-08-29T23:19:25.855Z,17.76
2023-08-29T23:21:53.965Z,17.78
2023-08-29T23:24:21.289Z,17.77
2023-08-29T23:26:51.394Z,17.79
2023-08-29T23:29:19.657Z,17.83
2023-08-29T23:31:46.920Z,17.84
2023-08-29T23:34:13.751Z,17.81
2023-08-29T23:36:40.592Z,17.82
2023-08-29T23:39:10.099Z,17.88
2023-08-29T23:41:36.945Z,17.89
2023-08-29T23:44:04.226Z,17.89
2023-08-29T23:46:31.771Z,17.85
2023-08-29T23:48:58.896Z,17.81
2023-08-29T23:51:25.939Z,17.79
2023-08-29T23:53:52.991Z,17.77
2023-08-29T23:56:19.945Z,17.78
2023-08-29T23:58:46.904Z,17.80
